sensor_id;sensor_type;location;lat;lon;timestamp;pressure;altitude;pressure_sealevel;temperature;humidity
57801;BME280;43627;42.728;23.256;2022-07-18T00:00:21;95690.56;;;16.66;56.56
57801;BME280;43627;42.728;23.256;2022-07-18T00:02:47;95686.28;;;16.65;56.81
57801;BME280;43627;42.728;23.256;2022-07-18T00:05:14;95696.38;;;16.68;54.36
57801;BME280;43627;42.728;23.256;2022-07-18T00:07:41;95697.91;;;16.69;54.55
57801;BME280;43627;42.728;23.256;2022-07-18T00:10:08;95679.50;;;16.61;54.34
57801;BME280;43627;42.728;23.256;2022-07-18T00:12:35;95686.44;;;16.56;54.49
57801;BME280;43627;42.728;23.256;2022-07-18T00:15:03;95695.47;;;16.56;54.09
57801;BME280;43627;42.728;23.256;2022-07-18T00:17:30;95695.41;;;16.51;54.80
57801;BME280;43627;42.728;23.256;2022-07-18T00:19:56;95706.63;;;16.47;55.41
57801;BME280;43627;42.728;23.256;2022-07-18T00:22:23;95695.00;;;16.38;55.14
57801;BME280;43627;42.728;23.256;2022-07-18T00:24:50;95680.13;;;16.29;55.03
57801;BME280;43627;42.728;23.256;2022-07-18T00:27:17;95690.13;;;16.27;54.64
57801;BME280;43627;42.728;23.256;2022-07-18T00:29:43;95692.09;;;16.26;54.38
57801;BME280;43627;42.728;23.256;2022-07-18T00:32:10;95686.56;;;16.21;54.33
57801;BME280;43627;42.728;23.256;2022-07-18T00:34:36;95695.22;;;16.14;54.26
57801;BME280;43627;42.728;23.256;2022-07-18T00:37:03;95694.38;;;16.08;54.10
57801;BME280;43627;42.728;23.256;2022-07-18T00:39:30;95682.34;;;16.05;54.05
57801;BME280;43627;42.728;23.256;2022-07-18T00:41:57;95682.88;;;16.09;54.06
57801;BME280;43627;42.728;23.256;2022-07-18T00:44:25;95681.09;;;16.06;53.71
57801;BME280;43627;42.728;23.256;2022-07-18T00:46:57;95681.38;;;16.08;52.97
57801;BME280;43627;42.728;23.256;2022-07-18T00:49:24;95688.13;;;16.07;52.71
57801;BME280;43627;42.728;23.256;2022-07-18T00:51:51;95695.13;;;16.08;52.45
57801;BME280;43627;42.728;23.256;2022-07-18T00:54:18;95703.94;;;16.12;53.89
57801;BME280;43627;42.728;23.256;2022-07-18T00:56:46;95703.88;;;16.07;52.95
57801;BME280;43627;42.728;23.256;2022-07-18T00:59:14;95697.59;;;16.06;52.06
57801;BME280;43627;42.728;23.256;2022-07-18T01:01:42;95694.59;;;16.04;51.12
57801;BME280;43627;42.728;23.256;2022-07-18T01:04:10;95676.09;;;16.05;51.54
57801;BME280;43627;42.728;23.256;2022-07-18T01:06:38;95694.84;;;16.06;51.41
57801;BME280;43627;42.728;23.256;2022-07-18T01:09:05;95691.22;;;15.94;51.58
57801;BME280;43627;42.728;23.256;2022-07-18T01:11:34;95690.44;;;15.94;50.99
57801;BME280;43627;42.728;23.256;2022-07-18T01:14:03;95691.06;;;16.04;51.31
57801;BME280;43627;42.728;23.256;2022-07-18T01:16:30;95690.34;;;15.88;51.77
57801;BME280;43627;42.728;23.256;2022-07-18T01:18:58;95686.81;;;16.03;50.99
57801;BME280;43627;42.728;23.256;2022-07-18T01:21:25;95693.41;;;16.11;49.29
57801;BME280;43627;42.728;23.256;2022-07-18T01:23:51;95684.59;;;16.07;49.68
57801;BME280;43627;42.728;23.256;2022-07-18T01:26:18;95682.63;;;16.07;49.32
57801;BME280;43627;42.728;23.256;2022-07-18T01:28:46;95692.38;;;16.08;50.29
57801;BME280;43627;42.728;23.256;2022-07-18T01:31:14;95705.84;;;16.06;51.97
57801;BME280;43627;42.728;23.256;2022-07-18T01:33:41;95694.13;;;15.91;51.08
57801;BME280;43627;42.728;23.256;2022-07-18T01:36:08;95693.22;;;15.79;50.53
57801;BME280;43627;42.728;23.256;2022-07-18T01:38:35;95676.19;;;15.75;50.31
57801;BME280;43627;42.728;23.256;2022-07-18T01:41:02;95670.53;;;15.64;49.57
57801;BME280;43627;42.728;23.256;2022-07-18T01:43:29;95675.50;;;15.80;49.25
57801;BME280;43627;42.728;23.256;2022-07-18T01:45:56;95680.06;;;15.83;48.86
57801;BME280;43627;42.728;23.256;2022-07-18T01:48:23;95672.63;;;15.89;48.21
57801;BME280;43627;42.728;23.256;2022-07-18T01:50:51;95670.22;;;15.97;48.13
57801;BME280;43627;42.728;23.256;2022-07-18T01:53:19;95676.28;;;16.01;47.99
57801;BME280;43627;42.728;23.256;2022-07-18T01:55:46;95678.84;;;16.05;46.81
57801;BME280;43627;42.728;23.256;2022-07-18T01:58:13;95673.88;;;16.09;46.85
57801;BME280;43627;42.728;23.256;2022-07-18T02:00:40;95680.88;;;16.10;46.29
57801;BME280;43627;42.728;23.256;2022-07-18T02:03:07;95678.63;;;16.08;46.22
57801;BME280;43627;42.728;23.256;2022-07-18T02:05:34;95675.19;;;16.13;47.21
57801;BME280;43627;42.728;23.256;2022-07-18T02:08:00;95678.56;;;16.03;46.64
57801;BME280;43627;42.728;23.256;2022-07-18T02:10:27;95680.34;;;16.06;47.50
57801;BME280;43627;42.728;23.256;2022-07-18T02:12:54;95680.25;;;16.00;46.95
57801;BME280;43627;42.728;23.256;2022-07-18T02:15:21;95678.97;;;15.95;46.04
57801;BME280;43627;42.728;23.256;2022-07-18T02:17:48;95690.81;;;16.02;46.79
57801;BME280;43627;42.728;23.256;2022-07-18T02:20:15;95679.72;;;15.96;47.53
57801;BME280;43627;42.728;23.256;2022-07-18T02:22:42;95687.69;;;15.94;46.23
57801;BME280;43627;42.728;23.256;2022-07-18T02:25:09;95675.00;;;15.82;46.24
57801;BME280;43627;42.728;23.256;2022-07-18T02:27:36;95673.22;;;15.79;46.28
57801;BME280;43627;42.728;23.256;2022-07-18T02:30:05;95689.59;;;15.88;46.16
57801;BME280;43627;42.728;23.256;2022-07-18T02:32:33;95690.69;;;15.76;46.39
57801;BME280;43627;42.728;23.256;2022-07-18T02:35:01;95689.34;;;15.71;46.72
57801;BME280;43627;42.728;23.256;2022-07-18T02:37:29;95691.00;;;15.63;47.05
57801;BME280;43627;42.728;23.256;2022-07-18T02:39:55;95701.25;;;15.48;49.23
57801;BME280;43627;42.728;23.256;2022-07-18T02:42:22;95706.56;;;15.36;48.75
57801;BME280;43627;42.728;23.256;2022-07-18T02:44:49;95705.53;;;15.19;49.86
57801;BME280;43627;42.728;23.256;2022-07-18T02:47:15;95709.41;;;15.27;50.78
57801;BME280;43627;42.728;23.256;2022-07-18T02:49:42;95697.94;;;15.14;51.32
57801;BME280;43627;42.728;23.256;2022-07-18T02:52:09;95704.19;;;15.00;51.93
57801;BME280;43627;42.728;23.256;2022-07-18T02:54:38;95700.41;;;14.82;53.38
57801;BME280;43627;42.728;23.256;2022-07-18T02:57:06;95703.66;;;14.57;52.78
57801;BME280;43627;42.728;23.256;2022-07-18T02:59:33;95709.63;;;14.55;54.28
57801;BME280;43627;42.728;23.256;2022-07-18T03:01:59;95711.41;;;14.58;54.76
57801;BME280;43627;42.728;23.256;2022-07-18T03:04:26;95719.41;;;14.71;56.97
57801;BME280;43627;42.728;23.256;2022-07-18T03:06:53;95717.78;;;14.65;56.45
57801;BME280;43627;42.728;23.256;2022-07-18T03:09:20;95722.03;;;14.66;55.16
57801;BME280;43627;42.728;23.256;2022-07-18T03:11:47;95728.19;;;14.61;54.41
57801;BME280;43627;42.728;23.256;2022-07-18T03:14:14;95709.06;;;14.51;53.95
57801;BME280;43627;42.728;23.256;2022-07-18T03:16:41;95737.19;;;14.61;54.70
57801;BME280;43627;42.728;23.256;2022-07-18T03:19:08;95719.47;;;14.62;52.50
57801;BME280;43627;42.728;23.256;2022-07-18T03:21:35;95721.56;;;14.67;52.24
57801;BME280;43627;42.728;23.256;2022-07-18T03:24:01;95720.53;;;14.65;51.67
57801;BME280;43627;42.728;23.256;2022-07-18T03:26:28;95697.97;;;14.46;51.68
57801;BME280;43627;42.728;23.256;2022-07-18T03:28:55;95715.66;;;14.45;51.00
57801;BME280;43627;42.728;23.256;2022-07-18T03:31:22;95725.69;;;14.48;50.63
57801;BME280;43627;42.728;23.256;2022-07-18T03:33:49;95730.63;;;14.58;50.04
57801;BME280;43627;42.728;23.256;2022-07-18T03:36:16;95717.59;;;14.68;49.11
57801;BME280;43627;42.728;23.256;2022-07-18T03:38:42;95716.09;;;14.82;48.57
57801;BME280;43627;42.728;23.256;2022-07-18T03:41:11;95715.00;;;15.18;47.90
57801;BME280;43627;42.728;23.256;2022-07-18T03:43:38;95722.47;;;15.62;46.56
57801;BME280;43627;42.728;23.256;2022-07-18T03:46:07;95725.25;;;16.17;45.01
57801;BME280;43627;42.728;23.256;2022-07-18T03:48:34;95724.69;;;16.69;44.31
57801;BME280;43627;42.728;23.256;2022-07-18T03:51:02;95721.91;;;17.15;43.64
57801;BME280;43627;42.728;23.256;2022-07-18T03:53:30;95725.59;;;18.01;41.71
57801;BME280;43627;42.728;23.256;2022-07-18T03:55:57;95712.31;;;18.48;40.26
57801;BME280;43627;42.728;23.256;2022-07-18T03:58:31;95714.59;;;18.61;39.68
57801;BME280;43627;42.728;23.256;2022-07-18T04:01:06;95726.59;;;19.34;38.84
57801;BME280;43627;42.728;23.256;2022-07-18T04:03:33;95729.38;;;20.01;36.90
57801;BME280;43627;42.728;23.256;2022-07-18T04:06:00;95722.75;;;20.32;36.30
57801;BME280;43627;42.728;23.256;2022-07-18T04:12:14;95739.50;;;20.79;35.04
57801;BME280;43627;42.728;23.256;2022-07-18T04:18:28;95725.38;;;19.85;39.32
57801;BME280;43627;42.728;23.256;2022-07-18T04:20:54;95734.09;;;19.11;39.20
57801;BME280;43627;42.728;23.256;2022-07-18T04:23:21;95704.41;;;18.95;39.37
57801;BME280;43627;42.728;23.256;2022-07-18T04:25:48;95727.88;;;19.61;38.75
57801;BME280;43627;42.728;23.256;2022-07-18T04:28:15;95726.53;;;20.35;37.49
57801;BME280;43627;42.728;23.256;2022-07-18T04:30:42;95730.03;;;20.46;36.24
57801;BME280;43627;42.728;23.256;2022-07-18T04:33:10;95729.16;;;20.74;35.85
57801;BME280;43627;42.728;23.256;2022-07-18T04:35:38;95724.47;;;20.52;36.10
57801;BME280;43627;42.728;23.256;2022-07-18T04:38:07;95718.94;;;20.52;36.68
57801;BME280;43627;42.728;23.256;2022-07-18T04:40:34;95721.59;;;20.80;36.48
57801;BME280;43627;42.728;23.256;2022-07-18T04:43:02;95709.38;;;21.41;36.27
57801;BME280;43627;42.728;23.256;2022-07-18T04:45:29;95714.69;;;22.29;34.49
57801;BME280;43627;42.728;23.256;2022-07-18T04:47:56;95711.66;;;22.95;34.04
57801;BME280;43627;42.728;23.256;2022-07-18T04:50:23;95716.91;;;22.98;33.94
57801;BME280;43627;42.728;23.256;2022-07-18T04:52:52;95705.72;;;22.85;33.38
57801;BME280;43627;42.728;23.256;2022-07-18T04:55:20;95705.94;;;22.87;33.37
57801;BME280;43627;42.728;23.256;2022-07-18T04:57:49;95715.88;;;23.52;32.88
57801;BME280;43627;42.728;23.256;2022-07-18T05:00:18;95714.41;;;23.97;32.05
57801;BME280;43627;42.728;23.256;2022-07-18T05:02:48;95721.13;;;24.46;31.17
57801;BME280;43627;42.728;23.256;2022-07-18T05:05:17;95715.78;;;24.35;30.87
57801;BME280;43627;42.728;23.256;2022-07-18T05:07:45;95718.66;;;24.56;30.32
57801;BME280;43627;42.728;23.256;2022-07-18T05:10:14;95724.88;;;24.49;28.75
57801;BME280;43627;42.728;23.256;2022-07-18T05:12:43;95712.44;;;24.50;29.20
57801;BME280;43627;42.728;23.256;2022-07-18T05:15:12;95722.00;;;23.96;30.25
57801;BME280;43627;42.728;23.256;2022-07-18T05:17:40;95718.13;;;23.54;31.95
57801;BME280;43627;42.728;23.256;2022-07-18T05:20:10;95713.16;;;23.47;31.00
57801;BME280;43627;42.728;23.256;2022-07-18T05:22:37;95715.06;;;23.38;31.89
57801;BME280;43627;42.728;23.256;2022-07-18T05:25:05;95718.72;;;22.96;31.69
57801;BME280;43627;42.728;23.256;2022-07-18T05:27:32;95719.88;;;22.81;32.91
57801;BME280;43627;42.728;23.256;2022-07-18T05:30:00;95718.91;;;22.79;32.36
57801;BME280;43627;42.728;23.256;2022-07-18T05:32:27;95712.19;;;23.12;31.54
57801;BME280;43627;42.728;23.256;2022-07-18T05:34:54;95723.91;;;23.05;32.11
57801;BME280;43627;42.728;23.256;2022-07-18T05:37:21;95725.03;;;23.15;31.78
57801;BME280;43627;42.728;23.256;2022-07-18T05:39:48;95721.28;;;23.13;32.53
57801;BME280;43627;42.728;23.256;2022-07-18T05:42:17;95721.94;;;23.00;33.25
57801;BME280;43627;42.728;23.256;2022-07-18T05:45:05;95728.22;;;22.81;33.37
57801;BME280;43627;42.728;23.256;2022-07-18T05:47:32;95725.09;;;22.91;33.36
57801;BME280;43627;42.728;23.256;2022-07-18T05:49:59;95736.91;;;22.97;34.75
57801;BME280;43627;42.728;23.256;2022-07-18T05:52:25;95725.63;;;22.89;34.90
57801;BME280;43627;42.728;23.256;2022-07-18T05:54:52;95723.50;;;23.33;34.53
57801;BME280;43627;42.728;23.256;2022-07-18T05:57:19;95726.47;;;23.22;34.55
57801;BME280;43627;42.728;23.256;2022-07-18T05:59:46;95722.63;;;23.57;33.67
57801;BME280;43627;42.728;23.256;2022-07-18T06:02:12;95734.09;;;23.34;34.18
57801;BME280;43627;42.728;23.256;2022-07-18T06:04:39;95736.97;;;23.29;33.69
57801;BME280;43627;42.728;23.256;2022-07-18T06:07:26;95720.88;;;23.41;34.06
57801;BME280;43627;42.728;23.256;2022-07-18T06:09:53;95732.63;;;23.65;34.08
57801;BME280;43627;42.728;23.256;2022-07-18T06:12:20;95721.06;;;23.61;34.35
57801;BME280;43627;42.728;23.256;2022-07-18T06:14:47;95732.03;;;23.73;34.62
57801;BME280;43627;42.728;23.256;2022-07-18T06:17:14;95733.53;;;23.87;33.03
57801;BME280;43627;42.728;23.256;2022-07-18T06:19:40;95732.31;;;24.01;33.64
57801;BME280;43627;42.728;23.256;2022-07-18T06:22:08;95723.84;;;24.07;33.52
57801;BME280;43627;42.728;23.256;2022-07-18T06:24:35;95722.59;;;24.21;30.12
57801;BME280;43627;42.728;23.256;2022-07-18T06:27:02;95722.66;;;24.15;30.22
57801;BME280;43627;42.728;23.256;2022-07-18T06:29:29;95725.16;;;24.19;29.70
57801;BME280;43627;42.728;23.256;2022-07-18T06:31:55;95729.09;;;24.10;30.29
57801;BME280;43627;42.728;23.256;2022-07-18T06:34:22;95720.41;;;24.01;29.92
57801;BME280;43627;42.728;23.256;2022-07-18T06:36:49;95728.78;;;24.14;29.32
57801;BME280;43627;42.728;23.256;2022-07-18T06:39:16;95727.34;;;24.39;27.18
57801;BME280;43627;42.728;23.256;2022-07-18T06:41:44;95713.34;;;24.13;28.40
57801;BME280;43627;42.728;23.256;2022-07-18T06:44:11;95717.00;;;24.21;28.31
57801;BME280;43627;42.728;23.256;2022-07-18T06:46:38;95707.34;;;24.22;28.99
57801;BME280;43627;42.728;23.256;2022-07-18T06:49:05;95715.31;;;24.31;29.72
57801;BME280;43627;42.728;23.256;2022-07-18T06:51:32;95715.63;;;24.28;29.75
57801;BME280;43627;42.728;23.256;2022-07-18T06:53:59;95712.91;;;23.96;29.67
57801;BME280;43627;42.728;23.256;2022-07-18T06:56:26;95696.84;;;24.15;27.44
57801;BME280;43627;42.728;23.256;2022-07-18T06:58:52;95708.13;;;23.64;30.82
57801;BME280;43627;42.728;23.256;2022-07-18T07:01:20;95708.81;;;23.97;30.16
57801;BME280;43627;42.728;23.256;2022-07-18T07:03:47;95701.75;;;23.96;28.00
57801;BME280;43627;42.728;23.256;2022-07-18T07:06:14;95697.91;;;24.25;28.25
57801;BME280;43627;42.728;23.256;2022-07-18T07:08:43;95696.34;;;24.16;26.93
57801;BME280;43627;42.728;23.256;2022-07-18T07:11:10;95694.25;;;23.90;27.04
57801;BME280;43627;42.728;23.256;2022-07-18T07:13:36;95705.19;;;23.88;27.69
57801;BME280;43627;42.728;23.256;2022-07-18T07:16:04;95708.34;;;23.66;27.93
57801;BME280;43627;42.728;23.256;2022-07-18T07:18:30;95700.09;;;23.60;27.57
57801;BME280;43627;42.728;23.256;2022-07-18T07:20:58;95691.94;;;22.93;29.86
57801;BME280;43627;42.728;23.256;2022-07-18T07:23:25;95696.25;;;22.94;30.54
57801;BME280;43627;42.728;23.256;2022-07-18T07:25:52;95695.56;;;22.88;31.01
57801;BME280;43627;42.728;23.256;2022-07-18T07:28:19;95692.16;;;23.32;29.08
57801;BME280;43627;42.728;23.256;2022-07-18T07:30:45;95683.50;;;23.49;28.35
57801;BME280;43627;42.728;23.256;2022-07-18T07:33:12;95691.03;;;23.54;28.58
57801;BME280;43627;42.728;23.256;2022-07-18T07:35:39;95692.69;;;24.08;28.86
57801;BME280;43627;42.728;23.256;2022-07-18T07:38:06;95692.28;;;24.44;28.71
57801;BME280;43627;42.728;23.256;2022-07-18T07:40:32;95683.25;;;24.11;29.01
57801;BME280;43627;42.728;23.256;2022-07-18T07:43:11;95681.31;;;24.19;26.34
57801;BME280;43627;42.728;23.256;2022-07-18T07:45:38;95689.16;;;24.08;27.18
57801;BME280;43627;42.728;23.256;2022-07-18T07:48:06;95691.19;;;24.07;27.41
57801;BME280;43627;42.728;23.256;2022-07-18T07:50:33;95693.34;;;24.28;28.00
57801;BME280;43627;42.728;23.256;2022-07-18T07:53:00;95695.56;;;24.69;26.03
57801;BME280;43627;42.728;23.256;2022-07-18T07:55:27;95691.09;;;24.66;25.56
57801;BME280;43627;42.728;23.256;2022-07-18T07:57:54;95690.50;;;24.81;26.11
57801;BME280;43627;42.728;23.256;2022-07-18T08:00:21;95686.38;;;24.61;27.14
57801;BME280;43627;42.728;23.256;2022-07-18T08:03:00;95701.22;;;24.90;26.62
57801;BME280;43627;42.728;23.256;2022-07-18T08:05:29;95699.81;;;25.10;27.69
57801;BME280;43627;42.728;23.256;2022-07-18T08:07:58;95693.03;;;25.39;25.45
57801;BME280;43627;42.728;23.256;2022-07-18T08:10:25;95689.06;;;25.14;26.05
57801;BME280;43627;42.728;23.256;2022-07-18T08:12:52;95701.91;;;25.51;25.85
57801;BME280;43627;42.728;23.256;2022-07-18T08:15:19;95696.34;;;25.51;25.81
57801;BME280;43627;42.728;23.256;2022-07-18T08:17:46;95695.63;;;25.37;25.31
57801;BME280;43627;42.728;23.256;2022-07-18T08:20:14;95697.09;;;25.51;25.72
57801;BME280;43627;42.728;23.256;2022-07-18T08:22:56;95692.00;;;24.82;25.51
57801;BME280;43627;42.728;23.256;2022-07-18T08:25:24;95691.91;;;24.87;25.42
57801;BME280;43627;42.728;23.256;2022-07-18T08:27:51;95695.53;;;24.82;25.45
57801;BME280;43627;42.728;23.256;2022-07-18T08:30:18;95693.22;;;25.20;25.75
57801;BME280;43627;42.728;23.256;2022-07-18T08:32:45;95693.41;;;25.56;24.99
57801;BME280;43627;42.728;23.256;2022-07-18T08:35:13;95702.13;;;25.53;24.28
57801;BME280;43627;42.728;23.256;2022-07-18T08:37:40;95699.06;;;25.85;24.29
57801;BME280;43627;42.728;23.256;2022-07-18T08:40:07;95703.72;;;25.82;24.37
57801;BME280;43627;42.728;23.256;2022-07-18T08:42:34;95697.78;;;26.35;24.79
57801;BME280;43627;42.728;23.256;2022-07-18T08:45:11;95696.09;;;26.11;23.67
57801;BME280;43627;42.728;23.256;2022-07-18T08:47:38;95699.34;;;25.74;22.92
57801;BME280;43627;42.728;23.256;2022-07-18T08:50:05;95691.19;;;26.04;23.71
57801;BME280;43627;42.728;23.256;2022-07-18T08:52:32;95696.41;;;25.58;25.30
57801;BME280;43627;42.728;23.256;2022-07-18T08:55:19;95693.75;;;25.74;24.79
57801;BME280;43627;42.728;23.256;2022-07-18T08:57:51;95691.56;;;25.59;25.32
57801;BME280;43627;42.728;23.256;2022-07-18T09:00:20;95689.84;;;25.35;25.75
57801;BME280;43627;42.728;23.256;2022-07-18T09:03:02;95677.72;;;25.12;27.10
57801;BME280;43627;42.728;23.256;2022-07-18T09:05:30;95681.03;;;24.97;28.05
57801;BME280;43627;42.728;23.256;2022-07-18T09:13:14;95676.81;;;24.69;27.19
57801;BME280;43627;42.728;23.256;2022-07-18T09:16:02;95681.44;;;24.40;28.38
57801;BME280;43627;42.728;23.256;2022-07-18T09:18:32;95678.00;;;24.34;28.61
57801;BME280;43627;42.728;23.256;2022-07-18T09:21:07;95670.81;;;24.65;27.97
57801;BME280;43627;42.728;23.256;2022-07-18T09:23:38;95673.47;;;24.71;28.91
57801;BME280;43627;42.728;23.256;2022-07-18T09:26:06;95681.38;;;24.93;28.40
57801;BME280;43627;42.728;23.256;2022-07-18T09:28:48;95681.41;;;24.80;29.60
57801;BME280;43627;42.728;23.256;2022-07-18T09:31:35;95689.97;;;24.82;28.59
57801;BME280;43627;42.728;23.256;2022-07-18T09:34:03;95673.22;;;24.95;29.52
57801;BME280;43627;42.728;23.256;2022-07-18T09:36:30;95673.06;;;25.14;28.57
57801;BME280;43627;42.728;23.256;2022-07-18T09:39:17;95673.91;;;25.43;28.64
57801;BME280;43627;42.728;23.256;2022-07-18T09:41:44;95672.81;;;25.46;29.06
57801;BME280;43627;42.728;23.256;2022-07-18T09:44:18;95668.94;;;25.28;28.30
57801;BME280;43627;42.728;23.256;2022-07-18T09:47:02;95682.66;;;25.05;28.98
57801;BME280;43627;42.728;23.256;2022-07-18T09:49:33;95670.59;;;25.11;30.09
57801;BME280;43627;42.728;23.256;2022-07-18T09:52:06;95674.03;;;25.17;29.84
57801;BME280;43627;42.728;23.256;2022-07-18T09:54:38;95665.25;;;24.99;29.77
57801;BME280;43627;42.728;23.256;2022-07-18T09:57:06;95669.41;;;24.72;30.33
57801;BME280;43627;42.728;23.256;2022-07-18T09:59:34;95662.16;;;24.90;30.31
57801;BME280;43627;42.728;23.256;2022-07-18T10:02:03;95669.25;;;25.04;29.86
57801;BME280;43627;42.728;23.256;2022-07-18T10:04:30;95666.56;;;25.32;29.85
57801;BME280;43627;42.728;23.256;2022-07-18T10:06:57;95653.22;;;25.39;28.47
57801;BME280;43627;42.728;23.256;2022-07-18T10:09:23;95659.81;;;25.49;28.83
57801;BME280;43627;42.728;23.256;2022-07-18T10:11:51;95642.19;;;25.33;28.72
57801;BME280;43627;42.728;23.256;2022-07-18T10:14:28;95660.91;;;25.67;28.90
57801;BME280;43627;42.728;23.256;2022-07-18T10:16:57;95654.59;;;25.87;28.44
57801;BME280;43627;42.728;23.256;2022-07-18T10:19:23;95646.59;;;25.91;28.55
57801;BME280;43627;42.728;23.256;2022-07-18T10:21:50;95648.88;;;26.29;27.96
57801;BME280;43627;42.728;23.256;2022-07-18T10:24:18;95638.78;;;26.18;28.70
57801;BME280;43627;42.728;23.256;2022-07-18T10:27:19;95648.88;;;25.72;28.62
57801;BME280;43627;42.728;23.256;2022-07-18T10:30:09;95638.84;;;25.97;29.38
57801;BME280;43627;42.728;23.256;2022-07-18T10:32:36;95625.34;;;26.16;30.36
57801;BME280;43627;42.728;23.256;2022-07-18T10:35:04;95635.28;;;26.25;29.62
57801;BME280;43627;42.728;23.256;2022-07-18T10:37:34;95631.81;;;25.83;29.53
57801;BME280;43627;42.728;23.256;2022-07-18T10:45:56;95617.75;;;25.96;29.26
57801;BME280;43627;42.728;23.256;2022-07-18T10:51:13;95616.97;;;26.24;29.07
57801;BME280;43627;42.728;23.256;2022-07-18T10:53:57;95618.50;;;26.61;28.83
57801;BME280;43627;42.728;23.256;2022-07-18T10:59:20;95611.31;;;26.37;29.87
57801;BME280;43627;42.728;23.256;2022-07-18T11:01:54;95624.03;;;26.17;29.76
57801;BME280;43627;42.728;23.256;2022-07-18T11:04:35;95596.09;;;26.17;29.55
57801;BME280;43627;42.728;23.256;2022-07-18T11:09:48;95605.81;;;26.60;28.80
57801;BME280;43627;42.728;23.256;2022-07-18T11:22:53;95593.16;;;26.31;29.35
57801;BME280;43627;42.728;23.256;2022-07-18T11:25:24;95600.25;;;26.32;29.23
57801;BME280;43627;42.728;23.256;2022-07-18T11:28:12;95600.22;;;26.24;28.74
57801;BME280;43627;42.728;23.256;2022-07-18T11:30:39;95601.66;;;26.46;29.58
57801;BME280;43627;42.728;23.256;2022-07-18T11:33:20;95598.34;;;26.55;28.76
57801;BME280;43627;42.728;23.256;2022-07-18T11:35:48;95591.34;;;26.85;28.13
57801;BME280;43627;42.728;23.256;2022-07-18T11:38:16;95583.53;;;26.98;27.97
57801;BME280;43627;42.728;23.256;2022-07-18T11:40:52;95588.56;;;26.92;28.20
57801;BME280;43627;42.728;23.256;2022-07-18T11:43:25;95589.09;;;26.75;28.65
57801;BME280;43627;42.728;23.256;2022-07-18T11:46:05;95593.22;;;26.90;27.98
57801;BME280;43627;42.728;23.256;2022-07-18T11:48:47;95591.78;;;27.04;26.57
57801;BME280;43627;42.728;23.256;2022-07-18T11:51:19;95579.28;;;27.05;25.83
57801;BME280;43627;42.728;23.256;2022-07-18T11:53:48;95577.16;;;26.90;26.41
57801;BME280;43627;42.728;23.256;2022-07-18T11:56:15;95570.34;;;27.14;26.24
57801;BME280;43627;42.728;23.256;2022-07-18T11:58:43;95581.19;;;27.25;25.94
57801;BME280;43627;42.728;23.256;2022-07-18T12:01:11;95578.94;;;27.16;25.88
57801;BME280;43627;42.728;23.256;2022-07-18T12:03:43;95582.59;;;26.96;26.05
57801;BME280;43627;42.728;23.256;2022-07-18T12:06:22;95567.56;;;27.14;26.94
57801;BME280;43627;42.728;23.256;2022-07-18T12:08:51;95571.09;;;26.48;28.35
57801;BME280;43627;42.728;23.256;2022-07-18T12:11:35;95573.41;;;26.80;27.69
57801;BME280;43627;42.728;23.256;2022-07-18T12:14:04;95571.59;;;26.98;27.26
57801;BME280;43627;42.728;23.256;2022-07-18T12:16:41;95564.78;;;27.29;26.36
57801;BME280;43627;42.728;23.256;2022-07-18T12:19:11;95554.31;;;27.60;26.75
57801;BME280;43627;42.728;23.256;2022-07-18T12:21:55;95560.84;;;27.86;26.52
57801;BME280;43627;42.728;23.256;2022-07-18T12:24:30;95560.06;;;27.85;26.69
57801;BME280;43627;42.728;23.256;2022-07-18T12:35:10;95559.50;;;27.18;28.12
57801;BME280;43627;42.728;23.256;2022-07-18T12:37:37;95543.28;;;27.17;28.26
57801;BME280;43627;42.728;23.256;2022-07-18T12:40:13;95550.38;;;27.64;27.51
57801;BME280;43627;42.728;23.256;2022-07-18T12:43:03;95540.28;;;27.53;26.12
57801;BME280;43627;42.728;23.256;2022-07-18T12:45:31;95539.19;;;27.41;27.36
57801;BME280;43627;42.728;23.256;2022-07-18T12:47:58;95567.16;;;27.56;26.94
57801;BME280;43627;42.728;23.256;2022-07-18T12:50:25;95549.81;;;27.19;27.11
57801;BME280;43627;42.728;23.256;2022-07-18T12:52:51;95542.94;;;27.20;28.04
57801;BME280;43627;42.728;23.256;2022-07-18T12:55:18;95538.22;;;26.92;28.41
57801;BME280;43627;42.728;23.256;2022-07-18T12:57:46;95556.63;;;26.80;27.88
57801;BME280;43627;42.728;23.256;2022-07-18T13:00:12;95549.53;;;26.71;28.38
57801;BME280;43627;42.728;23.256;2022-07-18T13:02:39;95543.78;;;26.77;27.52
57801;BME280;43627;42.728;23.256;2022-07-18T13:05:06;95552.97;;;27.08;27.03
57801;BME280;43627;42.728;23.256;2022-07-18T13:07:33;95534.63;;;26.76;27.54
57801;BME280;43627;42.728;23.256;2022-07-18T13:10:00;95548.69;;;27.15;27.49
57801;BME280;43627;42.728;23.256;2022-07-18T13:12:26;95533.78;;;27.43;27.27
57801;BME280;43627;42.728;23.256;2022-07-18T13:14:53;95543.66;;;27.74;27.23
57801;BME280;43627;42.728;23.256;2022-07-18T13:17:20;95538.78;;;27.75;26.72
57801;BME280;43627;42.728;23.256;2022-07-18T13:19:52;95534.66;;;27.91;25.96
57801;BME280;43627;42.728;23.256;2022-07-18T13:22:19;95547.63;;;28.34;26.43
57801;BME280;43627;42.728;23.256;2022-07-18T13:24:45;95536.03;;;28.30;26.25
57801;BME280;43627;42.728;23.256;2022-07-18T13:27:12;95536.78;;;28.31;27.09
57801;BME280;43627;42.728;23.256;2022-07-18T13:29:39;95535.41;;;27.84;27.10
57801;BME280;43627;42.728;23.256;2022-07-18T13:32:05;95526.81;;;27.82;27.92
57801;BME280;43627;42.728;23.256;2022-07-18T13:34:32;95530.22;;;27.57;27.92
57801;BME280;43627;42.728;23.256;2022-07-18T13:37:06;95533.38;;;27.46;28.29
57801;BME280;43627;42.728;23.256;2022-07-18T13:39:32;95539.19;;;27.41;28.13
57801;BME280;43627;42.728;23.256;2022-07-18T13:41:59;95531.34;;;27.24;28.34
57801;BME280;43627;42.728;23.256;2022-07-18T13:44:29;95538.91;;;26.77;28.70